createdAt,value
2018-03-08T00:02:25.231Z,93188.36
2018-03-08T00:04:53.602Z,93204.30
2018-03-08T00:07:22.053Z,93212.33
2018-03-08T00:09:50.441Z,93210.84
2018-03-08T00:12:18.835Z,93208.75
2018-03-08T00:14:47.295Z,93206.88
2018-03-08T00:17:15.810Z,93212.02
2018-03-08T00:19:44.477Z,93212.26
2018-03-08T00:22:12.902Z,93214.53
2018-03-08T00:24:41.317Z,93213.02
2018-03-08T00:27:10.420Z,93223.05
2018-03-08T00:29:39.893Z,93217.25
2018-03-08T00:32:08.458Z,93228.33
2018-03-08T00:34:36.855Z,93238.66
2018-03-08T00:37:05.301Z,93238.89
2018-03-08T00:39:33.794Z,93241.77
2018-03-08T00:42:02.229Z,93238.44
2018-03-08T00:44:30.655Z,93247.34
2018-03-08T00:46:59.057Z,93245.38
2018-03-08T00:49:27.501Z,93251.02
2018-03-08T00:51:55.902Z,93256.20
2018-03-08T00:54:24.283Z,93250.23
2018-03-08T00:56:52.675Z,93254.39
2018-03-08T00:59:21.063Z,93253.71
2018-03-08T01:01:49.457Z,93243.34
2018-03-08T01:04:17.882Z,93255.59
2018-03-08T01:06:46.460Z,93251.64
2018-03-08T01:09:14.934Z,93253.46
2018-03-08T01:11:43.344Z,93258.89
2018-03-08T01:14:11.803Z,93256.58
2018-03-08T01:16:40.326Z,93256.98
2018-03-08T01:19:08.889Z,93259.58
2018-03-08T01:21:37.387Z,93251.12
2018-03-08T01:24:05.799Z,93252.56
2018-03-08T01:26:34.196Z,93252.12
2018-03-08T01:29:02.661Z,93253.21
2018-03-08T01:31:31.188Z,93257.30
2018-03-08T01:33:59.612Z,93255.45
2018-03-08T01:36:28.921Z,93254.16
2018-03-08T01:38:57.320Z,93254.21
2018-03-08T01:41:25.740Z,93261.63
2018-03-08T01:43:54.206Z,93261.20
2018-03-08T01:46:22.635Z,93265.22
2018-03-08T01:48:51.174Z,93267.78
2018-03-08T01:51:19.572Z,93269.29
2018-03-08T01:53:47.959Z,93275.13
2018-03-08T01:56:16.490Z,93275.48
2018-03-08T01:58:44.928Z,93283.50
2018-03-08T02:01:13.333Z,93280.55
2018-03-08T02:03:41.738Z,93283.63
2018-03-08T02:06:10.112Z,93285.17
2018-03-08T02:08:38.582Z,93292.53
2018-03-08T02:11:06.982Z,93292.06
2018-03-08T02:13:35.404Z,93291.41
2018-03-08T02:16:03.873Z,93296.17
2018-03-08T02:18:32.319Z,93285.91
2018-03-08T02:21:00.725Z,93286.70
2018-03-08T02:23:29.142Z,93290.05
2018-03-08T02:25:57.543Z,93297.03
2018-03-08T02:28:26.971Z,93301.11
2018-03-08T02:30:55.454Z,93303.28
2018-03-08T02:33:23.860Z,93307.74
2018-03-08T02:35:52.277Z,93318.02
2018-03-08T02:38:20.664Z,93308.32
2018-03-08T02:40:49.167Z,93308.62
2018-03-08T02:43:17.619Z,93310.97
2018-03-08T02:45:46.018Z,93315.96
2018-03-08T02:48:14.429Z,93318.16
2018-03-08T02:50:42.817Z,93328.06
2018-03-08T02:53:11.219Z,93329.52
2018-03-08T02:55:39.968Z,93330.57
2018-03-08T02:58:08.358Z,93334.77
2018-03-08T03:00:36.764Z,93335.83
2018-03-08T03:03:05.160Z,93342.81
2018-03-08T03:05:33.630Z,93344.36
2018-03-08T03:08:02.487Z,93352.92
2018-03-08T03:10:30.892Z,93347.19
2018-03-08T03:12:59.282Z,93351.94
2018-03-08T03:15:27.693Z,93351.25
2018-03-08T03:17:56.084Z,93357.00
2018-03-08T03:20:24.505Z,93351.76
2018-03-08T03:22:52.901Z,93351.09
2018-03-08T03:25:21.347Z,93354.33
2018-03-08T03:27:49.736Z,93350.20
2018-03-08T03:30:18.222Z,93358.30
2018-03-08T03:32:46.620Z,93346.97
2018-03-08T03:35:15.093Z,93359.08
2018-03-08T03:37:43.574Z,93361.95
2018-03-08T03:40:11.946Z,93365.44
2018-03-08T03:42:40.350Z,93364.83
2018-03-08T03:45:08.767Z,93369.25
2018-03-08T03:47:37.164Z,93369.59
2018-03-08T03:50:05.710Z,93363.17
2018-03-08T03:52:34.075Z,93364.74
2018-03-08T03:55:02.473Z,93371.00
2018-03-08T03:57:30.895Z,93365.92
2018-03-08T03:59:59.290Z,93374.22
2018-03-08T04:02:27.711Z,93373.75
2018-03-08T04:04:56.180Z,93368.58
2018-03-08T04:07:24.635Z,93373.86
2018-03-08T04:09:53.014Z,93372.14
2018-03-08T04:12:21.488Z,93370.80
2018-03-08T04:14:49.884Z,93379.98
2018-03-08T04:17:18.343Z,93372.95
2018-03-08T04:19:46.796Z,93378.80
2018-03-08T04:22:15.187Z,93382.23
2018-03-08T04:24:43.584Z,93382.95
2018-03-08T04:27:11.973Z,93376.41
2018-03-08T04:29:40.375Z,93384.08
2018-03-08T04:32:08.829Z,93385.48
2018-03-08T04:34:37.569Z,93389.30
2018-03-08T04:37:05.978Z,93390.03
2018-03-08T04:39:34.435Z,93394.17
2018-03-08T04:42:02.847Z,93397.44
2018-03-08T04:44:31.407Z,93400.03
2018-03-08T04:46:59.855Z,93397.67
2018-03-08T04:49:28.254Z,93407.59
2018-03-08T04:51:56.665Z,93415.02
2018-03-08T04:54:25.088Z,93417.35
2018-03-08T04:56:53.626Z,93419.62
2018-03-08T04:59:22.015Z,93411.84
2018-03-08T05:01:50.428Z,93412.64
2018-03-08T05:04:18.820Z,93420.94
2018-03-08T05:06:47.223Z,93422.39
2018-03-08T05:09:15.696Z,93426.94
2018-03-08T05:11:44.082Z,93424.36
2018-03-08T05:14:12.483Z,93418.43
2018-03-08T05:16:40.879Z,93423.09
2018-03-08T05:19:09.291Z,93432.40
2018-03-08T05:21:37.752Z,93429.27
2018-03-08T05:24:06.156Z,93430.16
2018-03-08T05:26:34.565Z,93437.05
2018-03-08T05:29:02.953Z,93438.89
2018-03-08T05:31:31.356Z,93453.94
2018-03-08T05:33:59.807Z,93452.13
2018-03-08T05:36:28.204Z,93442.51
2018-03-08T05:38:56.603Z,93454.84
2018-03-08T05:41:25.015Z,93455.30
2018-03-08T05:43:53.419Z,93460.82
2018-03-08T05:46:21.881Z,93471.55
2018-03-08T05:48:50.304Z,93473.25
2018-03-08T05:51:18.724Z,93473.88
2018-03-08T05:53:47.204Z,93471.44
2018-03-08T05:56:15.667Z,93479.38
2018-03-08T05:58:44.258Z,93485.41
2018-03-08T06:01:13.861Z,93487.90
2018-03-08T06:03:42.251Z,93488.75
2018-03-08T06:06:10.658Z,93485.84
2018-03-08T06:08:39.060Z,93496.77
2018-03-08T06:11:07.527Z,93487.77
2018-03-08T06:13:35.933Z,93490.06
2018-03-08T06:16:04.335Z,93499.70
2018-03-08T06:18:32.734Z,93503.27
2018-03-08T06:21:01.136Z,93509.61
2018-03-08T06:23:29.737Z,93511.80
2018-03-08T06:25:58.151Z,93517.48
2018-03-08T06:28:26.572Z,93518.72
2018-03-08T06:30:54.995Z,93519.77
2018-03-08T06:33:23.420Z,93518.28
2018-03-08T06:35:51.976Z,93524.41
2018-03-08T06:38:21.646Z,93524.28
2018-03-08T06:40:51.098Z,93524.88
2018-03-08T06:43:19.559Z,93525.32
2018-03-08T06:45:48.000Z,93526.77
2018-03-08T06:48:16.410Z,93517.38
2018-03-08T06:50:44.909Z,93526.25
2018-03-08T06:53:13.450Z,93519.11
2018-03-08T06:55:41.846Z,93524.26
2018-03-08T06:58:10.242Z,93530.67
2018-03-08T07:00:38.656Z,93528.62
2018-03-08T07:03:07.144Z,93531.06
2018-03-08T07:05:35.727Z,93541.42
2018-03-08T07:08:04.114Z,93540.25
2018-03-08T07:10:32.504Z,93535.57
2018-03-08T07:13:00.903Z,93536.82
2018-03-08T07:15:29.389Z,93546.97
2018-03-08T07:17:57.787Z,93540.64
2018-03-08T07:20:26.184Z,93546.45
2018-03-08T07:22:54.637Z,93541.98
2018-03-08T07:25:23.104Z,93560.77
2018-03-08T07:27:51.483Z,93556.12
2018-03-08T07:30:37.924Z,93566.52
2018-03-08T07:33:06.305Z,93561.64
2018-03-08T07:35:34.695Z,93567.64
2018-03-08T07:38:03.084Z,93562.23
2018-03-08T07:40:31.547Z,93553.86
2018-03-08T07:42:59.917Z,93549.58
2018-03-08T07:45:28.304Z,93557.32
2018-03-08T07:48:02.381Z,93555.41
2018-03-08T07:50:44.317Z,93552.83
2018-03-08T07:53:16.909Z,93546.65
2018-03-08T07:55:45.331Z,93550.23
2018-03-08T07:58:15.230Z,93544.17
2018-03-08T08:00:44.167Z,93546.42
2018-03-08T08:03:23.438Z,93550.39
2018-03-08T08:06:12.349Z,93553.28
2018-03-08T08:11:51.078Z,93554.44
2018-03-08T08:17:28.278Z,93559.70
2018-03-08T09:20:38.800Z,93555.73
2018-03-08T09:23:07.183Z,93549.94
2018-03-08T09:25:35.664Z,93554.33
2018-03-08T09:28:04.155Z,93550.91
2018-03-08T09:30:32.611Z,93556.52
2018-03-08T09:33:01.011Z,93551.84
2018-03-08T09:35:29.432Z,93557.46
2018-03-08T09:37:57.901Z,93550.33
2018-03-08T09:40:26.297Z,93566.02
2018-03-08T09:42:54.672Z,93555.94
2018-03-08T09:45:23.088Z,93565.81
2018-03-08T09:47:51.553Z,93556.97
2018-03-08T09:50:20.055Z,93560.42
2018-03-08T09:52:48.460Z,93554.08
2018-03-08T09:55:16.860Z,93550.06
2018-03-08T09:57:45.328Z,93547.47
2018-03-08T10:00:13.730Z,93549.52
2018-03-08T10:02:42.189Z,93548.05
2018-03-08T10:05:10.678Z,93547.84
2018-03-08T10:07:39.144Z,93546.08
2018-03-08T10:10:07.552Z,93537.60
2018-03-08T10:12:35.953Z,93539.45
2018-03-08T10:15:04.531Z,93536.22
2018-03-08T10:17:33.059Z,93537.66
2018-03-08T10:20:01.505Z,93527.11
2018-03-08T10:22:29.904Z,93530.20
2018-03-08T10:24:58.286Z,93524.84
2018-03-08T10:27:26.692Z,93523.95
2018-03-08T10:29:55.077Z,93527.58
2018-03-08T10:32:23.525Z,93527.40
2018-03-08T10:34:51.911Z,93525.27
2018-03-08T10:37:20.364Z,93522.42
2018-03-08T10:39:48.772Z,93525.39
2018-03-08T10:42:17.212Z,93525.88
2018-03-08T10:44:45.670Z,93523.59
2018-03-08T10:47:14.568Z,93520.30
2018-03-08T10:49:42.957Z,93526.66
2018-03-08T10:52:11.345Z,93528.06
2018-03-08T10:54:39.749Z,93525.30
2018-03-08T10:57:08.593Z,93526.92
2018-03-08T10:59:36.984Z,93528.78
2018-03-08T11:05:13.620Z,93516.21
2018-03-08T11:07:41.971Z,93513.87
2018-03-08T11:10:10.334Z,93519.66
2018-03-08T11:12:38.730Z,93522.68
2018-03-08T11:15:07.191Z,93524.20
2018-03-08T11:17:35.539Z,93516.56
2018-03-08T11:20:03.904Z,93512.59
2018-03-08T11:22:32.318Z,93503.77
2018-03-08T11:25:00.938Z,93495.20
2018-03-08T11:27:29.292Z,93500.95
2018-03-08T11:29:57.708Z,93495.89
2018-03-08T11:32:26.135Z,93489.98
2018-03-08T11:34:54.516Z,93499.13
2018-03-08T11:37:22.961Z,93489.45
2018-03-08T11:39:51.302Z,93499.66
2018-03-08T11:42:19.738Z,93492.40
2018-03-08T11:44:48.123Z,93489.88
2018-03-08T11:47:16.490Z,93486.78
2018-03-08T11:49:44.948Z,93480.95
2018-03-08T11:52:14.383Z,93477.36
2018-03-08T11:54:41.752Z,93479.25
2018-03-08T11:57:10.115Z,93476.88
2018-03-08T11:59:38.538Z,93486.80
2018-03-08T12:02:06.911Z,93481.38
2018-03-08T12:04:35.423Z,93481.44
2018-03-08T12:07:03.787Z,93485.71
2018-03-08T12:09:32.262Z,93482.81
2018-03-08T12:12:00.630Z,93476.20
2018-03-08T12:14:29.065Z,93480.18
2018-03-08T12:16:57.596Z,93472.16
2018-03-08T12:19:25.867Z,93480.14
2018-03-08T12:21:54.236Z,93483.62
2018-03-08T12:24:22.589Z,93464.81
2018-03-08T12:26:50.952Z,93468.64
2018-03-08T12:29:19.342Z,93466.71
2018-03-08T12:31:47.742Z,93472.86
2018-03-08T12:34:16.242Z,93467.70
2018-03-08T12:36:44.649Z,93469.44
2018-03-08T12:39:13.146Z,93469.16
2018-03-08T12:41:41.652Z,93458.30
2018-03-08T12:44:10.054Z,93460.42
2018-03-08T12:46:39.800Z,93465.03
2018-03-08T12:49:08.614Z,93451.86
2018-03-08T12:51:37.065Z,93448.22
2018-03-08T12:54:05.544Z,93443.37
2018-03-08T12:56:33.951Z,93430.98
2018-03-08T12:59:02.416Z,93432.84
2018-03-08T13:01:30.798Z,93436.14
2018-03-08T13:03:59.536Z,93433.84
2018-03-08T13:06:27.932Z,93424.75
2018-03-08T13:08:56.402Z,93411.52
2018-03-08T13:11:25.002Z,93415.23
2018-03-08T13:13:53.404Z,93415.98
2018-03-08T13:16:21.884Z,93408.87
2018-03-08T13:18:52.964Z,93410.67
2018-03-08T13:21:21.398Z,93413.48
2018-03-08T13:23:49.771Z,93410.75
2018-03-08T13:26:18.229Z,93405.06
2018-03-08T13:28:46.692Z,93407.40
2018-03-08T13:31:15.153Z,93406.28
2018-03-08T13:33:43.654Z,93405.69
2018-03-08T13:36:12.042Z,93408.04
2018-03-08T13:38:40.590Z,93412.70
2018-03-08T13:41:08.973Z,93405.22
2018-03-08T13:43:37.410Z,93403.66
2018-03-08T13:46:05.746Z,93403.78
2018-03-08T13:48:34.144Z,93405.25
2018-03-08T13:51:02.668Z,93392.94
2018-03-08T13:53:31.063Z,93395.30
2018-03-08T13:55:59.524Z,93393.23
2018-03-08T13:58:28.290Z,93400.40
2018-03-08T14:00:56.838Z,93389.05
2018-03-08T14:03:26.000Z,93379.68
2018-03-08T14:05:54.355Z,93378.98
2018-03-08T14:08:22.740Z,93381.77
2018-03-08T14:10:51.081Z,93380.23
2018-03-08T14:13:19.537Z,93376.13
2018-03-08T14:15:47.924Z,93376.35
2018-03-08T14:18:16.330Z,93368.63
2018-03-08T14:20:44.786Z,93369.80
2018-03-08T14:23:13.247Z,93361.87
2018-03-08T14:25:41.658Z,93355.75
2018-03-08T14:28:10.121Z,93358.70
2018-03-08T14:30:38.555Z,93358.46
2018-03-08T14:33:07.015Z,93365.38
2018-03-08T14:35:35.766Z,93366.91
2018-03-08T14:38:04.155Z,93364.59
2018-03-08T14:40:32.527Z,93361.19
2018-03-08T14:43:00.945Z,93359.69
2018-03-08T14:45:29.431Z,93363.45
2018-03-08T14:47:58.032Z,93360.66
2018-03-08T14:50:26.452Z,93351.67
2018-03-08T14:52:54.998Z,93348.11
2018-03-08T14:55:23.416Z,93335.59
2018-03-08T14:57:51.773Z,93325.92
2018-03-08T15:00:20.203Z,93308.42
2018-03-08T15:02:48.591Z,93307.70
2018-03-08T15:05:16.969Z,93306.38
2018-03-08T15:07:45.467Z,93306.45
2018-03-08T15:10:13.876Z,93292.91
2018-03-08T15:12:42.415Z,93300.58
2018-03-08T15:15:10.794Z,93291.66
2018-03-08T15:17:39.232Z,93294.28
2018-03-08T15:20:07.629Z,93277.81
2018-03-08T15:22:36.012Z,93271.27
2018-03-08T15:25:04.420Z,93268.85
2018-03-08T15:27:32.958Z,93271.98
2018-03-08T15:30:01.399Z,93265.30
2018-03-08T15:32:29.877Z,93270.09
2018-03-08T15:34:58.292Z,93264.84
2018-03-08T15:37:26.772Z,93253.88
2018-03-08T15:39:55.151Z,93264.38
2018-03-08T15:42:23.535Z,93252.37
2018-03-08T15:44:51.886Z,93260.14
2018-03-08T15:47:20.330Z,93260.58
2018-03-08T15:49:48.731Z,93249.55
2018-03-08T15:52:17.150Z,93249.78
2018-03-08T15:54:45.553Z,93247.64
2018-03-08T15:57:14.110Z,93245.27
2018-03-08T15:59:42.639Z,93245.48
2018-03-08T16:02:11.083Z,93247.42
2018-03-08T16:04:39.475Z,93246.92
2018-03-08T16:10:36.583Z,93246.99
2018-03-08T16:13:05.030Z,93245.77
2018-03-08T16:15:33.879Z,93245.59
2018-03-08T16:18:02.546Z,93240.31
2018-03-08T16:20:31.720Z,93236.34
2018-03-08T16:23:00.151Z,93236.94
2018-03-08T16:25:28.550Z,93233.68
2018-03-08T16:27:57.097Z,93242.66
2018-03-08T16:30:25.576Z,93251.47
2018-03-08T16:32:53.990Z,93248.23
2018-03-08T16:35:22.424Z,93237.20
2018-03-08T16:37:50.800Z,93243.20
2018-03-08T16:40:19.567Z,93260.48
2018-03-08T16:42:48.006Z,93268.20
2018-03-08T16:45:16.483Z,93258.30
2018-03-08T16:47:44.991Z,93263.82
2018-03-08T16:50:13.473Z,93273.45
2018-03-08T16:52:41.864Z,93267.57
2018-03-08T16:55:10.231Z,93268.11
2018-03-08T16:57:38.675Z,93256.88
2018-03-08T17:00:07.132Z,93257.49
2018-03-08T17:02:35.523Z,93254.38
2018-03-08T17:05:03.963Z,93247.31
2018-03-08T17:07:32.421Z,93247.92
2018-03-08T17:10:00.814Z,93249.64
2018-03-08T17:12:29.256Z,93254.02
2018-03-08T17:14:57.657Z,93236.44
2018-03-08T17:17:26.034Z,93240.41
2018-03-08T17:19:54.507Z,93244.45
2018-03-08T17:22:22.882Z,93252.30
2018-03-08T17:24:51.636Z,93242.65
2018-03-08T17:27:20.002Z,93266.33
2018-03-08T17:29:48.391Z,93281.14
2018-03-08T17:32:16.811Z,93299.56
2018-03-08T17:34:45.285Z,93317.19
2018-03-08T17:37:13.921Z,93336.91
2018-03-08T17:39:42.316Z,93353.16
2018-03-08T17:42:10.690Z,93375.75
2018-03-08T17:44:39.104Z,93397.30
2018-03-08T17:47:07.482Z,93410.60
2018-03-08T17:49:36.069Z,93400.97
2018-03-08T17:52:04.547Z,93387.06
2018-03-08T17:54:32.954Z,93363.83
2018-03-08T17:57:01.367Z,93363.19
2018-03-08T17:59:29.743Z,93354.13
2018-03-08T18:01:58.186Z,93338.47
2018-03-08T18:04:26.573Z,93359.10
2018-03-08T18:06:54.975Z,93348.05
2018-03-08T18:09:23.358Z,93334.29
2018-03-08T18:11:51.803Z,93318.77
2018-03-08T18:14:20.237Z,93294.95
2018-03-08T18:16:48.647Z,93301.83
2018-03-08T18:19:17.102Z,93298.51
2018-03-08T18:21:46.738Z,93267.59
2018-03-08T18:24:15.227Z,93325.41
2018-03-08T18:26:43.989Z,93290.23
2018-03-08T18:29:12.498Z,93260.34
2018-03-08T18:31:40.890Z,93312.93
2018-03-08T18:34:09.284Z,93325.03
2018-03-08T18:36:37.666Z,93319.78
2018-03-08T18:39:06.148Z,93325.11
2018-03-08T18:41:34.558Z,93314.01
2018-03-08T18:44:03.025Z,93321.32
2018-03-08T18:46:31.437Z,93312.81
2018-03-08T18:48:59.826Z,93323.20
2018-03-08T18:51:32.347Z,93320.80
2018-03-08T18:54:00.730Z,93330.31
2018-03-08T18:56:29.171Z,93331.98
2018-03-08T18:58:57.576Z,93343.02
2018-03-08T19:01:26.410Z,93349.09
2018-03-08T19:03:55.385Z,93362.14
2018-03-08T19:06:23.865Z,93351.26
2018-03-08T19:08:52.304Z,93359.55
2018-03-08T19:11:21.842Z,93366.16
2018-03-08T19:13:50.443Z,93357.69
2018-03-08T19:16:19.094Z,93358.83
2018-03-08T19:18:47.488Z,93364.32
2018-03-08T19:21:19.915Z,93370.23
2018-03-08T19:23:48.290Z,93365.00
2018-03-08T19:26:17.022Z,93368.22
2018-03-08T19:28:45.745Z,93368.59
2018-03-08T19:31:15.011Z,93370.99
2018-03-08T19:33:47.093Z,93369.87
2018-03-08T19:36:21.778Z,93369.60
2018-03-08T19:41:27.298Z,93385.14
2018-03-08T19:44:06.605Z,93387.35
2018-03-08T19:46:50.679Z,93394.38
2018-03-08T19:49:27.032Z,93398.58
2018-03-08T19:51:55.438Z,93398.94
2018-03-08T19:54:23.808Z,93393.84
2018-03-08T19:56:52.262Z,93405.67
2018-03-08T19:59:20.786Z,93399.53
2018-03-08T20:01:51.539Z,93410.52
2018-03-08T20:04:27.309Z,93422.06
2018-03-08T20:06:56.099Z,93421.72
2018-03-08T20:09:25.050Z,93431.80
2018-03-08T20:11:53.727Z,93436.59
2018-03-08T20:14:23.258Z,93435.65
2018-03-08T20:16:52.031Z,93437.50
2018-03-08T20:19:20.461Z,93437.49
2018-03-08T20:21:48.961Z,93441.05
2018-03-08T20:24:17.416Z,93450.92
2018-03-08T20:26:45.831Z,93456.73
2018-03-08T20:29:14.248Z,93447.72
2018-03-08T20:31:46.699Z,93461.10
2018-03-08T20:34:15.144Z,93471.54
2018-03-08T20:36:43.599Z,93456.61
2018-03-08T20:39:12.008Z,93466.27
2018-03-08T20:41:40.428Z,93461.37
2018-03-08T20:44:08.907Z,93468.37
2018-03-08T20:46:38.793Z,93460.77
2018-03-08T20:49:07.290Z,93469.24
2018-03-08T20:51:36.279Z,93481.17
2018-03-08T20:54:04.680Z,93514.38
2018-03-08T20:56:33.084Z,93519.06
2018-03-08T20:59:01.551Z,93510.91
2018-03-08T21:01:30.011Z,93531.20
2018-03-08T21:03:58.411Z,93518.28
2018-03-08T21:06:26.798Z,93516.13
2018-03-08T21:08:55.199Z,93513.26
2018-03-08T21:11:23.581Z,93522.11
2018-03-08T21:13:51.991Z,93512.40
2018-03-08T21:16:20.371Z,93529.81
2018-03-08T21:18:48.743Z,93530.59
2018-03-08T21:21:17.236Z,93532.13
2018-03-08T21:23:45.606Z,93536.64
2018-03-08T21:26:14.078Z,93536.23
2018-03-08T21:28:42.587Z,93541.52
2018-03-08T21:31:10.985Z,93544.99
2018-03-08T21:33:39.392Z,93539.73
2018-03-08T21:36:07.771Z,93540.86
2018-03-08T21:38:36.191Z,93547.16
2018-03-08T21:41:04.560Z,93550.35
2018-03-08T21:43:32.987Z,93553.18
2018-03-08T21:46:01.631Z,93558.22
2018-03-08T21:48:30.352Z,93562.73
2018-03-08T21:50:58.789Z,93561.95
2018-03-08T21:53:27.174Z,93568.72
2018-03-08T21:55:55.612Z,93564.63
2018-03-08T21:58:23.985Z,93563.30
2018-03-08T22:00:52.470Z,93566.40
2018-03-08T22:03:20.858Z,93571.34
2018-03-08T22:05:49.435Z,93570.20
2018-03-08T22:08:17.813Z,93573.05
2018-03-08T22:10:46.277Z,93570.77
2018-03-08T22:13:14.714Z,93576.97
2018-03-08T22:15:43.105Z,93581.66
2018-03-08T22:18:11.511Z,93579.78
2018-03-08T22:20:39.866Z,93587.38
2018-03-08T22:23:08.250Z,93584.49
2018-03-08T22:25:36.695Z,93598.34
2018-03-08T22:28:05.085Z,93591.84
2018-03-08T22:30:33.525Z,93596.25
2018-03-08T22:33:01.962Z,93599.31
2018-03-08T22:35:30.402Z,93599.45
2018-03-08T22:37:58.911Z,93600.81
2018-03-08T22:43:01.014Z,93610.17
2018-03-08T22:45:29.361Z,93614.09
2018-03-08T22:47:57.764Z,93608.16
2018-03-08T22:50:26.248Z,93618.27
2018-03-08T22:52:54.665Z,93610.03
2018-03-08T22:55:23.143Z,93612.35
2018-03-08T22:57:51.687Z,93612.55
2018-03-08T23:00:20.112Z,93609.45
2018-03-08T23:02:48.484Z,93618.58
2018-03-08T23:05:16.888Z,93614.23
2018-03-08T23:07:45.413Z,93624.73
2018-03-08T23:10:13.808Z,93619.03
2018-03-08T23:12:42.215Z,93621.30
2018-03-08T23:15:10.616Z,93618.20
2018-03-08T23:17:39.025Z,93625.34
2018-03-08T23:20:07.515Z,93629.09
2018-03-08T23:22:35.895Z,93627.59
2018-03-08T23:25:04.308Z,93634.41
2018-03-08T23:27:32.719Z,93631.67
2018-03-08T23:30:01.130Z,93640.25
2018-03-08T23:32:29.586Z,93638.41
2018-03-08T23:34:57.983Z,93643.56
2018-03-08T23:37:26.379Z,93649.30
2018-03-08T23:39:54.751Z,93652.31
2018-03-08T23:42:23.125Z,93664.14
2018-03-08T23:44:51.570Z,93660.54
2018-03-08T23:47:19.944Z,93664.88
2018-03-08T23:49:48.318Z,93667.17
2018-03-08T23:52:16.713Z,93669.02
2018-03-08T23:54:45.084Z,93674.59
2018-03-08T23:57:13.518Z,93681.56
2018-03-08T23:59:41.888Z,93682.05
